createdAt,value
2023-02-14T00:02:03.178Z,99.70
2023-02-14T00:04:30.172Z,99.57
2023-02-14T00:06:57.073Z,99.32
2023-02-14T00:09:24.019Z,99.06
2023-02-14T00:11:54.307Z,98.73
2023-02-14T00:14:39.781Z,98.38
2023-02-14T00:17:06.836Z,98.36
2023-02-14T00:19:35.339Z,98.33
2023-02-14T00:22:02.567Z,98.34
2023-02-14T00:24:29.330Z,98.45
2023-02-14T00:26:56.268Z,98.18
2023-02-14T00:29:30.023Z,98.03
2023-02-14T00:31:56.863Z,97.98
2023-02-14T00:34:24.728Z,97.57
2023-02-14T00:36:54.096Z,97.44
2023-02-14T00:39:20.769Z,96.94
2023-02-14T00:41:47.950Z,97.25
2023-02-14T00:44:16.738Z,97.17
2023-02-14T00:46:43.503Z,97.23
2023-02-14T00:49:12.729Z,96.60
2023-02-14T00:51:39.696Z,96.56
2023-02-14T00:54:06.403Z,96.53
2023-02-14T00:56:33.258Z,96.47
2023-02-14T00:58:59.967Z,96.39
2023-02-14T01:01:26.828Z,96.22
2023-02-14T01:03:53.699Z,96.14
2023-02-14T01:06:20.457Z,95.90
2023-02-14T01:08:47.256Z,95.84
2023-02-14T01:11:18.771Z,95.66
2023-02-14T01:13:46.446Z,95.82
2023-02-14T01:16:16.021Z,95.85
2023-02-14T01:18:43.888Z,96.01
2023-02-14T01:21:19.654Z,95.86
2023-02-14T01:23:47.089Z,95.61
2023-02-14T01:26:14.816Z,95.33
2023-02-14T01:28:41.831Z,95.01
2023-02-14T01:31:33.066Z,95.02
2023-02-14T01:34:00.025Z,94.80
2023-02-14T01:36:35.537Z,94.63
2023-02-14T01:39:06.479Z,94.70
2023-02-14T01:41:34.100Z,94.32
2023-02-14T01:44:14.208Z,94.03
2023-02-14T01:46:41.901Z,94.07
2023-02-14T01:49:15.669Z,94.19
2023-02-14T01:51:50.597Z,94.10
2023-02-14T01:54:18.381Z,93.99
2023-02-14T01:56:48.867Z,94.29
2023-02-14T01:59:19.314Z,94.36
2023-02-14T02:01:47.323Z,94.18
2023-02-14T02:04:20.264Z,93.94
2023-02-14T02:06:49.808Z,94.23
2023-02-14T02:09:30.927Z,94.33
2023-02-14T02:11:57.714Z,94.45
2023-02-14T02:14:27.331Z,94.15
2023-02-14T02:17:29.122Z,94.43
2023-02-14T02:20:56.120Z,94.34
2023-02-14T02:24:06.699Z,94.45
2023-02-14T02:27:17.688Z,94.01
2023-02-14T02:30:24.905Z,93.94
2023-02-14T02:33:51.762Z,93.82
2023-02-14T02:37:01.799Z,93.90
2023-02-14T02:40:25.736Z,93.52
2023-02-14T02:43:12.774Z,93.76
2023-02-14T02:46:14.112Z,94.21
2023-02-14T02:48:57.746Z,94.26
2023-02-14T02:51:58.179Z,94.00
2023-02-14T02:54:34.964Z,94.28
2023-02-14T02:57:06.141Z,94.26
2023-02-14T02:59:40.369Z,94.17
2023-02-14T03:02:23.924Z,94.50
2023-02-14T03:04:55.870Z,94.34
2023-02-14T03:07:41.751Z,94.26
2023-02-14T03:10:20.817Z,94.32
2023-02-14T03:21:31.134Z,94.72
2023-02-14T03:24:21.475Z,94.46
2023-02-14T03:27:03.462Z,94.16
2023-02-14T03:30:02.331Z,94.43
2023-02-14T03:32:34.568Z,95.19
2023-02-14T03:35:08.826Z,96.14
2023-02-14T03:37:48.568Z,97.49
2023-02-14T03:40:25.614Z,98.50
2023-02-14T03:43:05.199Z,99.54
2023-02-14T03:45:33.636Z,100.00
2023-02-14T03:48:03.619Z,100.00
2023-02-14T03:50:30.878Z,100.00
2023-02-14T03:52:57.533Z,100.00
2023-02-14T03:55:28.061Z,100.00
2023-02-14T03:58:25.826Z,100.00
2023-02-14T04:00:55.803Z,100.00
2023-02-14T04:03:23.081Z,100.00
2023-02-14T04:05:51.795Z,100.00
2023-02-14T04:08:27.124Z,100.00
2023-02-14T04:10:54.312Z,100.00
2023-02-14T04:13:20.991Z,100.00
2023-02-14T04:15:47.925Z,100.00
2023-02-14T04:18:33.953Z,100.00
2023-02-14T04:21:01.015Z,100.00
2023-02-14T04:23:28.264Z,100.00
2023-02-14T04:25:55.422Z,100.00
2023-02-14T04:28:22.675Z,100.00
2023-02-14T04:30:50.079Z,100.00
2023-02-14T04:33:16.795Z,100.00
2023-02-14T04:35:43.828Z,100.00
2023-02-14T04:38:10.607Z,100.00
2023-02-14T04:40:37.331Z,100.00
2023-02-14T04:43:04.042Z,100.00
2023-02-14T04:45:31.410Z,100.00
2023-02-14T04:47:58.342Z,100.00
2023-02-14T04:50:25.757Z,100.00
2023-02-14T04:52:52.751Z,100.00
2023-02-14T04:55:19.643Z,100.00
2023-02-14T04:57:46.660Z,100.00
2023-02-14T05:00:15.197Z,100.00
2023-02-14T05:02:42.025Z,100.00
2023-02-14T05:05:09.089Z,100.00
2023-02-14T05:07:35.742Z,100.00
2023-02-14T05:10:04.108Z,100.00
2023-02-14T05:12:31.489Z,100.00
2023-02-14T05:14:58.137Z,100.00
2023-02-14T05:17:25.105Z,100.00
2023-02-14T05:19:51.982Z,100.00
2023-02-14T05:22:18.700Z,100.00
2023-02-14T05:24:45.517Z,100.00
2023-02-14T05:27:12.165Z,100.00
2023-02-14T05:29:40.886Z,100.00
2023-02-14T05:32:08.969Z,100.00
2023-02-14T05:34:35.755Z,100.00
2023-02-14T05:37:03.102Z,100.00
2023-02-14T05:39:30.683Z,100.00
2023-02-14T05:41:59.272Z,100.00
2023-02-14T05:44:27.480Z,100.00
2023-02-14T05:46:54.694Z,100.00
2023-02-14T05:49:21.788Z,100.00
2023-02-14T05:51:48.455Z,100.00
2023-02-14T05:54:15.428Z,100.00
2023-02-14T05:56:42.073Z,100.00
2023-02-14T05:59:09.421Z,100.00
2023-02-14T06:01:36.366Z,100.00
2023-02-14T06:04:03.304Z,100.00
2023-02-14T06:06:30.218Z,100.00
2023-02-14T06:08:56.837Z,100.00
2023-02-14T06:11:23.482Z,100.00
2023-02-14T06:13:50.937Z,100.00
2023-02-14T06:16:17.610Z,100.00
2023-02-14T06:18:44.250Z,100.00
2023-02-14T06:21:10.919Z,100.00
2023-02-14T06:23:38.008Z,100.00
2023-02-14T06:26:08.010Z,100.00
2023-02-14T06:28:35.518Z,99.95
2023-02-14T06:31:02.944Z,99.60
2023-02-14T06:33:29.969Z,98.74
2023-02-14T06:35:56.682Z,97.81
2023-02-14T06:38:24.072Z,97.27
2023-02-14T06:40:51.942Z,96.99
2023-02-14T06:43:18.682Z,96.13
2023-02-14T06:45:46.145Z,95.07
2023-02-14T06:48:13.224Z,94.38
2023-02-14T06:50:40.084Z,93.93
2023-02-14T06:53:06.773Z,93.60
2023-02-14T06:55:34.421Z,93.26
2023-02-14T06:58:01.278Z,93.36
2023-02-14T07:00:30.197Z,92.67
2023-02-14T07:02:57.939Z,92.42
2023-02-14T07:05:24.666Z,91.93
2023-02-14T07:07:53.416Z,91.06
2023-02-14T07:10:20.411Z,90.35
2023-02-14T07:12:47.254Z,89.82
2023-02-14T07:15:14.186Z,89.32
2023-02-14T07:17:41.322Z,88.52
2023-02-14T07:20:09.649Z,88.13
2023-02-14T07:22:37.152Z,86.66
2023-02-14T07:25:05.640Z,85.08
2023-02-14T07:27:33.241Z,84.21
2023-02-14T07:30:00.020Z,83.19
2023-02-14T07:32:27.026Z,81.81
2023-02-14T07:34:54.204Z,80.12
2023-02-14T07:37:21.328Z,77.91
2023-02-14T07:39:48.263Z,75.37
2023-02-14T07:42:15.246Z,73.49
2023-02-14T07:44:46.055Z,69.02
2023-02-14T07:47:12.819Z,65.86
2023-02-14T07:49:39.494Z,63.94
2023-02-14T07:52:06.584Z,62.76
2023-02-14T07:54:33.771Z,62.04
2023-02-14T07:57:00.724Z,62.24
2023-02-14T07:59:27.956Z,62.81
2023-02-14T08:01:55.185Z,63.83
2023-02-14T08:04:25.583Z,64.30
2023-02-14T08:06:53.092Z,64.90
2023-02-14T08:09:26.808Z,64.62
2023-02-14T08:12:15.276Z,63.20
2023-02-14T08:14:42.704Z,62.46
2023-02-14T08:17:10.211Z,61.56
2023-02-14T08:19:38.367Z,61.45
2023-02-14T08:22:05.738Z,61.47
2023-02-14T08:24:33.259Z,61.88
